Αναφορές Αεροδρομίων

 

KSJC - San Jose, California, USA
Distance from station: ΒΑ 14km
Ενημερώθηκε: 21/09/2021 04:53
Few Clouds
Few Clouds
 Ανεμος από ΒΔ
Ανεμος: ΒΔ 15 km/h
Θερμοκρασία: 26°C
Σημείο Δρόσου: 8°C
Υγρασία: 32%
Βαρόμετρο: 1012.9 hPa
Clouds: Few Clouds
Visibility: 16 km
Cloud details: Few Clouds 701 m
2021/09/21 01:53 KSJC 210153Z 32008KT 10SM FEW023 26/08 A2991 RMK AO2 SLP126 FU FEW023 T02610083
KNUQ - Moffett Nas/Mtn, California, USA
Distance from station: Β 14km
Ενημερώθηκε: 22/08/2021 14:40
NOT Current
Συννεφιά
Συννεφιά
 Ανεμος από ΝΝΑ
Ανεμος: ΝΝΑ 11 km/h
Θερμοκρασία: 16°C
Σημείο Δρόσου: 12°C
Υγρασία: 77%
Βαρόμετρο: 1009.8 hPa
Clouds: Συννεφιά
Visibility: 16 km
Cloud details: Συννεφιά 549 m
2021/08/22 11:40 KNUQ 221140Z AUTO 16006KT 10SM OVC018 16/12 A2982 RMK AO2
 
KPAO - Palo Alto, California, USA
Distance from station: ΒΒΔ 23km
Ενημερώθηκε: 21/09/2021 04:47
Αίθριος
Αίθριος
 Ανεμος από ΒΒΔ
Ανεμος: ΒΒΔ 13 km/h
Θερμοκρασία: 24°C
Σημείο Δρόσου: 12°C
Υγρασία: 47%
Βαρόμετρο: 1012.9 hPa
Clouds: Αίθριος
Visibility: 16 km
2021/09/21 01:47 KPAO 210147Z 33007KT 10SM SKC 24/12 A2991
KRHV - San Jose/Reid, California, USA
Distance from station: ΑΒΑ 19km
Ενημερώθηκε: 21/09/2021 02:50
NOT Current
Αίθριος
Αίθριος
 Ανεμος από Β
Ανεμος: Β 15 km/h
Θερμοκρασία: 32°C
Σημείο Δρόσου: 5°C
Υγρασία: 18%
Βαρόμετρο: 1012.2 hPa
Clouds: Αίθριος
Visibility: 16 km
2021/09/20 23:50 KRHV 202350Z 35008KT 10SM SKC 32/05 A2989
 
KOAK - Oakland, California, USA
Distance from station: ΒΒΔ 50km
Ενημερώθηκε: 21/09/2021 04:53
Αίθριος
Αίθριος
 Ανεμος από ΒΔ
Ανεμος: ΒΔ 11 km/h
Θερμοκρασία: 26°C
Σημείο Δρόσου: 6°C
Υγρασία: 28%
Βαρόμετρο: 1012.9 hPa
Clouds: Αίθριος
Visibility: 16 km
2021/09/21 01:53 KOAK 210153Z 32006KT 10SM CLR 26/06 A2991 RMK AO2 SLP129 T02560061
KSQL - San Carlos Airpo, California, USA
Distance from station: ΒΔ 34km
Ενημερώθηκε: 21/09/2021 04:47
Αίθριος
Αίθριος
 Ανεμος από calm
Ανεμος: Απνοια
Θερμοκρασία: 29°C
Σημείο Δρόσου: 6°C
Υγρασία: 23%
Βαρόμετρο: 1013.2 hPa
Clouds: Αίθριος
Visibility: 16 km
2021/09/21 01:47 KSQL 210147Z 00000KT 10SM CLR 29/06 A2992
 
KSFO - San Francisco, California, USA
Distance from station: ΒΔ 49km
Ενημερώθηκε: 21/09/2021 04:56
Αίθριος
Αίθριος
 Ανεμος από ΔΒΔ
Ανεμος: ΔΒΔ 30 km/h
Θερμοκρασία: 24°C
Σημείο Δρόσου: 4°C
Υγρασία: 27%
Βαρόμετρο: 1012.9 hPa
Clouds: Αίθριος
Visibility: 16 km
2021/09/21 01:56 KSFO 210156Z 29016KT 10SM CLR 24/04 A2991 RMK AO2 SLP127 T02440039
KE16 - San Martin, California, USA
Distance from station: ΑΝΑ 43km
Ενημερώθηκε: 21/09/2021 04:55
Αίθριος
Αίθριος
 Ανεμος από ΒΔ
Ανεμος: ΒΔ 7 km/h
Θερμοκρασία: 29°C
Σημείο Δρόσου: 4°C
Υγρασία: 20%
Βαρόμετρο: 1013.5 hPa
Clouds: Αίθριος
Visibility: 16 km
2021/09/21 01:55 KE16 210155Z AUTO 31004KT 10SM CLR 29/04 A2993 RMK AO2 PWINO PNO
 
KWVI - Watsonville, California, USA
Distance from station: ΝΝΑ 44km
Ενημερώθηκε: 21/09/2021 04:53
Αίθριος
Αίθριος
 Ανεμος από ΝΝΔ
Ανεμος: ΝΝΔ 9 km/h
Θερμοκρασία: 18°C
Σημείο Δρόσου: 13°C
Υγρασία: 73%
Βαρόμετρο: 1013.5 hPa
Clouds: Αίθριος
Visibility: 16 km
2021/09/21 01:53 KWVI 210153Z AUTO 20005KT 10SM CLR 18/13 A2993 RMK AO2 SLP133 T01830133
KHAF - Half Moon Bay, California, USA
Distance from station: ΔΒΔ 50km
Ενημερώθηκε: 21/09/2021 04:55
Αίθριος
Αίθριος
 Ανεμος από ΒΔ
Ανεμος: ΒΔ 17 km/h
Θερμοκρασία: 22°C
Σημείο Δρόσου: 6°C
Υγρασία: 36%
Βαρόμετρο: 1012.9 hPa
Clouds: Αίθριος
Visibility: 16 km
2021/09/21 01:55 KHAF 210155Z AUTO 32009KT 10SM CLR 22/06 A2991 RMK AO2 PWINO
 
KHWD - Hayward, California, USA
Distance from station: Β 44km
Ενημερώθηκε: 21/09/2021 04:54
Αίθριος
Αίθριος
 Ανεμος από Δ
Ανεμος: Δ 6 km/h
Θερμοκρασία: 26°C
Σημείο Δρόσου: 8°C
Υγρασία: 32%
Βαρόμετρο: 1012.9 hPa
Clouds: Αίθριος
Visibility: 16 km
2021/09/21 01:54 KHWD 210154Z 27003KT 10SM CLR 26/08 A2991 RMK AO2 SLP136 T02560083
KLVK - Livermore, California, USA
Distance from station: ΒΒΑ 51km
Ενημερώθηκε: 21/09/2021 04:53
Αίθριος
Αίθριος
 Ανεμος από ΑΒΑ
Ανεμος: ΑΒΑ 11 km/h
Θερμοκρασία: 28°C
Σημείο Δρόσου: 4°C
Υγρασία: 21%
Βαρόμετρο: 1013.2 hPa
Clouds: Αίθριος
Visibility: 16 km
2021/09/21 01:53 KLVK 210153Z 07006KT 10SM CLR 28/04 A2992 RMK AO2 SLP128 T02830039